sensor_id;sensor_type;location;lat;lon;timestamp;noise_LAeq;noise_LA_min;noise_LA_max;noise_LA01;noise_LA95
50333;Laerm;36239;48.132;-1.210;2023-02-28T00:00:04;38.67;32.93;44.65;;
50333;Laerm;36239;48.132;-1.210;2023-02-28T00:02:36;37.47;32.93;41.89;;
50333;Laerm;36239;48.132;-1.210;2023-02-28T00:05:03;37.59;32.58;47.59;;
50333;Laerm;36239;48.132;-1.210;2023-02-28T00:07:30;37.65;32.93;46.02;;
50333;Laerm;36239;48.132;-1.210;2023-02-28T00:09:56;37.67;32.93;44.27;;
50333;Laerm;36239;48.132;-1.210;2023-02-28T00:12:22;37.51;33.44;47.91;;
50333;Laerm;36239;48.132;-1.210;2023-02-28T00:14:48;37.56;32.93;42.53;;
50333;Laerm;36239;48.132;-1.210;2023-02-28T00:17:15;37.72;33.44;56.65;;
50333;Laerm;36239;48.132;-1.210;2023-02-28T00:19:43;39.55;32.35;61.02;;
50333;Laerm;36239;48.132;-1.210;2023-02-28T00:22:09;37.57;33.44;44.07;;
50333;Laerm;36239;48.132;-1.210;2023-02-28T00:24:35;37.85;32.35;50.86;;
50333;Laerm;36239;48.132;-1.210;2023-02-28T00:27:01;37.68;32.93;48.70;;
50333;Laerm;36239;48.132;-1.210;2023-02-28T00:29:27;39.47;32.35;52.33;;
50333;Laerm;36239;48.132;-1.210;2023-02-28T00:31:53;37.74;33.90;47.34;;
50333;Laerm;36239;48.132;-1.210;2023-02-28T00:34:19;37.69;32.93;52.15;;
50333;Laerm;36239;48.132;-1.210;2023-02-28T00:36:45;38.57;32.35;49.59;;
50333;Laerm;36239;48.132;-1.210;2023-02-28T00:39:14;39.70;33.44;59.77;;
50333;Laerm;36239;48.132;-1.210;2023-02-28T00:41:40;39.62;31.68;63.08;;
50333;Laerm;36239;48.132;-1.210;2023-02-28T00:44:06;39.64;33.90;45.54;;
50333;Laerm;36239;48.132;-1.210;2023-02-28T00:46:33;44.32;33.44;71.24;;
50333;Laerm;36239;48.132;-1.210;2023-02-28T00:48:59;38.46;32.93;55.22;;
50333;Laerm;36239;48.132;-1.210;2023-02-28T00:51:25;40.03;33.44;61.15;;
50333;Laerm;36239;48.132;-1.210;2023-02-28T00:53:51;38.88;32.93;52.84;;
50333;Laerm;36239;48.132;-1.210;2023-02-28T00:56:17;38.25;30.89;50.24;;
50333;Laerm;36239;48.132;-1.210;2023-02-28T00:58:43;38.57;33.44;56.64;;
50333;Laerm;36239;48.132;-1.210;2023-02-28T01:01:09;38.56;33.44;47.81;;
50333;Laerm;36239;48.132;-1.210;2023-02-28T01:03:35;39.59;32.35;61.32;;
50333;Laerm;36239;48.132;-1.210;2023-02-28T01:06:01;47.72;32.35;72.81;;
50333;Laerm;36239;48.132;-1.210;2023-02-28T01:08:27;38.94;32.93;59.09;;
50333;Laerm;36239;48.132;-1.210;2023-02-28T01:10:53;37.80;33.44;47.91;;
50333;Laerm;36239;48.132;-1.210;2023-02-28T01:13:19;38.30;32.93;51.57;;
50333;Laerm;36239;48.132;-1.210;2023-02-28T01:15:48;37.60;32.93;47.70;;
50333;Laerm;36239;48.132;-1.210;2023-02-28T01:18:14;37.94;32.35;49.44;;
50333;Laerm;36239;48.132;-1.210;2023-02-28T01:20:40;37.58;32.93;43.39;;
50333;Laerm;36239;48.132;-1.210;2023-02-28T01:23:06;37.70;32.93;44.11;;
50333;Laerm;36239;48.132;-1.210;2023-02-28T01:25:34;37.48;33.44;41.75;;
50333;Laerm;36239;48.132;-1.210;2023-02-28T01:28:00;37.68;33.44;48.23;;
50333;Laerm;36239;48.132;-1.210;2023-02-28T01:30:26;37.50;32.93;42.22;;
50333;Laerm;36239;48.132;-1.210;2023-02-28T01:32:52;37.86;32.93;50.62;;
50333;Laerm;36239;48.132;-1.210;2023-02-28T01:35:19;38.69;32.93;61.18;;
50333;Laerm;36239;48.132;-1.210;2023-02-28T01:37:45;37.80;33.44;49.85;;
50333;Laerm;36239;48.132;-1.210;2023-02-28T01:40:11;37.54;33.44;41.46;;
50333;Laerm;36239;48.132;-1.210;2023-02-28T01:42:38;38.06;32.35;45.69;;
50333;Laerm;36239;48.132;-1.210;2023-02-28T01:47:31;38.64;33.90;46.95;;
50333;Laerm;36239;48.132;-1.210;2023-02-28T01:50:00;38.62;33.90;44.47;;
50333;Laerm;36239;48.132;-1.210;2023-02-28T01:52:27;37.71;32.93;50.23;;
50333;Laerm;36239;48.132;-1.210;2023-02-28T01:54:54;37.78;32.93;41.96;;
50333;Laerm;36239;48.132;-1.210;2023-02-28T01:57:22;38.15;33.44;48.05;;
50333;Laerm;36239;48.132;-1.210;2023-02-28T01:59:51;38.46;33.90;57.00;;
50333;Laerm;36239;48.132;-1.210;2023-02-28T02:02:18;39.34;33.90;49.04;;
50333;Laerm;36239;48.132;-1.210;2023-02-28T02:04:49;38.35;33.90;43.29;;
50333;Laerm;36239;48.132;-1.210;2023-02-28T02:07:16;37.63;32.93;41.46;;
50333;Laerm;36239;48.132;-1.210;2023-02-28T02:09:42;37.61;32.93;43.72;;
50333;Laerm;36239;48.132;-1.210;2023-02-28T02:12:15;37.78;31.68;42.35;;
50333;Laerm;36239;48.132;-1.210;2023-02-28T02:14:51;37.69;33.44;42.09;;
50333;Laerm;36239;48.132;-1.210;2023-02-28T02:17:34;38.55;33.44;44.43;;
50333;Laerm;36239;48.132;-1.210;2023-02-28T02:22:39;37.61;32.93;41.30;;
50333;Laerm;36239;48.132;-1.210;2023-02-28T02:30:07;38.39;32.35;52.75;;
50333;Laerm;36239;48.132;-1.210;2023-02-28T02:35:11;37.71;33.90;42.88;;
50333;Laerm;36239;48.132;-1.210;2023-02-28T02:45:14;38.04;33.44;47.14;;
50333;Laerm;36239;48.132;-1.210;2023-02-28T02:47:42;38.90;32.93;46.71;;
50333;Laerm;36239;48.132;-1.210;2023-02-28T02:50:11;39.18;33.44;46.48;;
50333;Laerm;36239;48.132;-1.210;2023-02-28T02:52:42;38.61;33.44;44.97;;
50333;Laerm;36239;48.132;-1.210;2023-02-28T02:55:09;38.55;33.90;46.78;;
50333;Laerm;36239;48.132;-1.210;2023-02-28T02:57:46;38.38;34.31;46.78;;
50333;Laerm;36239;48.132;-1.210;2023-02-28T03:00:12;38.87;32.93;51.23;;
50333;Laerm;36239;48.132;-1.210;2023-02-28T03:02:40;39.42;33.90;44.58;;
50333;Laerm;36239;48.132;-1.210;2023-02-28T03:05:29;38.43;32.93;43.90;;
50333;Laerm;36239;48.132;-1.210;2023-02-28T03:07:53;42.91;33.90;77.78;;
50333;Laerm;36239;48.132;-1.210;2023-02-28T03:10:26;38.53;33.44;61.39;;
50333;Laerm;36239;48.132;-1.210;2023-02-28T03:12:56;39.03;34.31;46.18;;
50333;Laerm;36239;48.132;-1.210;2023-02-28T03:15:27;39.15;34.31;43.58;;
50333;Laerm;36239;48.132;-1.210;2023-02-28T03:18:06;41.63;35.66;50.54;;
50333;Laerm;36239;48.132;-1.210;2023-02-28T03:28:08;40.29;35.94;55.74;;
50333;Laerm;36239;48.132;-1.210;2023-02-28T03:30:39;40.49;36.45;45.33;;
50333;Laerm;36239;48.132;-1.210;2023-02-28T03:35:47;41.14;37.12;46.64;;
50333;Laerm;36239;48.132;-1.210;2023-02-28T03:38:16;40.20;36.20;44.54;;
50333;Laerm;36239;48.132;-1.210;2023-02-28T03:40:51;41.23;36.69;50.88;;
50333;Laerm;36239;48.132;-1.210;2023-02-28T03:43:25;40.64;36.20;45.57;;
50333;Laerm;36239;48.132;-1.210;2023-02-28T03:45:54;40.68;35.66;46.76;;
50333;Laerm;36239;48.132;-1.210;2023-02-28T03:48:30;39.00;33.44;44.65;;
50333;Laerm;36239;48.132;-1.210;2023-02-28T03:50:58;39.36;34.31;53.82;;
50333;Laerm;36239;48.132;-1.210;2023-02-28T03:53:27;39.55;34.31;47.32;;
50333;Laerm;36239;48.132;-1.210;2023-02-28T03:55:59;40.73;35.04;50.93;;
50333;Laerm;36239;48.132;-1.210;2023-02-28T04:00:55;39.83;33.90;47.44;;
50333;Laerm;36239;48.132;-1.210;2023-02-28T04:03:22;40.44;35.36;58.62;;
50333;Laerm;36239;48.132;-1.210;2023-02-28T04:05:52;39.33;34.31;52.22;;
50333;Laerm;36239;48.132;-1.210;2023-02-28T04:08:19;39.07;33.90;55.47;;
50333;Laerm;36239;48.132;-1.210;2023-02-28T04:10:47;39.42;34.31;55.30;;
50333;Laerm;36239;48.132;-1.210;2023-02-28T04:13:14;40.34;36.20;60.59;;
50333;Laerm;36239;48.132;-1.210;2023-02-28T04:15:40;40.76;36.20;52.95;;
50333;Laerm;36239;48.132;-1.210;2023-02-28T04:18:06;40.10;35.66;57.58;;
50333;Laerm;36239;48.132;-1.210;2023-02-28T04:20:32;44.94;35.94;66.99;;
50333;Laerm;36239;48.132;-1.210;2023-02-28T04:22:58;41.67;34.69;66.51;;
50333;Laerm;36239;48.132;-1.210;2023-02-28T04:25:24;41.43;35.66;66.34;;
50333;Laerm;36239;48.132;-1.210;2023-02-28T04:27:50;42.72;36.69;64.27;;
50333;Laerm;36239;48.132;-1.210;2023-02-28T04:30:16;41.71;37.88;54.74;;
50333;Laerm;36239;48.132;-1.210;2023-02-28T04:32:42;42.22;36.45;62.62;;
50333;Laerm;36239;48.132;-1.210;2023-02-28T04:35:08;40.41;36.69;54.68;;
50333;Laerm;36239;48.132;-1.210;2023-02-28T04:37:34;40.85;36.45;50.67;;
50333;Laerm;36239;48.132;-1.210;2023-02-28T04:40:02;40.46;36.45;44.23;;
50333;Laerm;36239;48.132;-1.210;2023-02-28T04:42:29;41.15;35.94;48.40;;
50333;Laerm;36239;48.132;-1.210;2023-02-28T04:45:04;48.62;38.05;65.80;;
50333;Laerm;36239;48.132;-1.210;2023-02-28T04:47:30;41.36;36.69;66.16;;
50333;Laerm;36239;48.132;-1.210;2023-02-28T04:49:56;40.30;35.66;46.87;;
50333;Laerm;36239;48.132;-1.210;2023-02-28T04:52:22;40.61;36.45;44.15;;
50333;Laerm;36239;48.132;-1.210;2023-02-28T04:54:48;39.02;35.04;47.95;;
50333;Laerm;36239;48.132;-1.210;2023-02-28T04:57:14;39.16;33.44;44.97;;
50333;Laerm;36239;48.132;-1.210;2023-02-28T04:59:40;39.89;35.36;45.99;;
50333;Laerm;36239;48.132;-1.210;2023-02-28T05:02:06;40.61;35.94;56.61;;
50333;Laerm;36239;48.132;-1.210;2023-02-28T05:04:33;40.97;36.91;48.48;;
50333;Laerm;36239;48.132;-1.210;2023-02-28T05:07:00;41.38;37.70;45.45;;
50333;Laerm;36239;48.132;-1.210;2023-02-28T05:09:26;39.50;35.36;46.84;;
50333;Laerm;36239;48.132;-1.210;2023-02-28T05:11:53;39.39;34.69;46.45;;
50333;Laerm;36239;48.132;-1.210;2023-02-28T05:14:20;41.06;36.45;47.24;;
50333;Laerm;36239;48.132;-1.210;2023-02-28T05:16:46;41.05;35.36;58.25;;
50333;Laerm;36239;48.132;-1.210;2023-02-28T05:19:12;43.87;35.94;66.45;;
50333;Laerm;36239;48.132;-1.210;2023-02-28T05:21:41;42.14;36.69;70.62;;
50333;Laerm;36239;48.132;-1.210;2023-02-28T05:24:13;41.06;36.45;51.08;;
50333;Laerm;36239;48.132;-1.210;2023-02-28T05:26:40;41.79;36.45;62.82;;
50333;Laerm;36239;48.132;-1.210;2023-02-28T05:29:06;41.71;36.20;59.00;;
50333;Laerm;36239;48.132;-1.210;2023-02-28T05:31:33;40.44;35.94;60.00;;
50333;Laerm;36239;48.132;-1.210;2023-02-28T05:33:59;49.26;37.52;66.75;;
50333;Laerm;36239;48.132;-1.210;2023-02-28T05:36:25;46.79;37.70;68.90;;
50333;Laerm;36239;48.132;-1.210;2023-02-28T05:38:51;43.40;36.69;64.42;;
50333;Laerm;36239;48.132;-1.210;2023-02-28T05:41:18;42.41;38.81;49.88;;
50333;Laerm;36239;48.132;-1.210;2023-02-28T05:43:48;42.05;38.37;48.87;;
50333;Laerm;36239;48.132;-1.210;2023-02-28T05:46:14;41.37;37.70;44.97;;
50333;Laerm;36239;48.132;-1.210;2023-02-28T05:48:40;42.55;36.69;59.71;;
50333;Laerm;36239;48.132;-1.210;2023-02-28T05:51:07;42.99;36.91;59.28;;
50333;Laerm;36239;48.132;-1.210;2023-02-28T05:53:33;43.19;38.37;54.57;;
50333;Laerm;36239;48.132;-1.210;2023-02-28T05:56:00;42.91;37.70;55.85;;
50333;Laerm;36239;48.132;-1.210;2023-02-28T05:58:26;49.87;38.05;65.04;;
50333;Laerm;36239;48.132;-1.210;2023-02-28T06:00:59;43.38;39.08;61.60;;
50333;Laerm;36239;48.132;-1.210;2023-02-28T06:03:25;43.11;39.34;56.29;;
50333;Laerm;36239;48.132;-1.210;2023-02-28T06:05:52;43.14;38.21;60.83;;
50333;Laerm;36239;48.132;-1.210;2023-02-28T06:08:18;51.28;39.08;78.71;;
50333;Laerm;36239;48.132;-1.210;2023-02-28T06:10:44;44.96;39.21;60.03;;
50333;Laerm;36239;48.132;-1.210;2023-02-28T06:13:10;44.11;38.67;59.79;;
50333;Laerm;36239;48.132;-1.210;2023-02-28T06:15:38;43.63;38.95;51.99;;
50333;Laerm;36239;48.132;-1.210;2023-02-28T06:18:05;43.51;39.70;51.40;;
50333;Laerm;36239;48.132;-1.210;2023-02-28T06:20:31;45.59;40.23;67.86;;
50333;Laerm;36239;48.132;-1.210;2023-02-28T06:22:57;47.79;41.61;72.58;;
50333;Laerm;36239;48.132;-1.210;2023-02-28T06:25:26;43.74;40.13;57.27;;
50333;Laerm;36239;48.132;-1.210;2023-02-28T06:27:53;44.11;40.03;52.40;;
50333;Laerm;36239;48.132;-1.210;2023-02-28T06:30:19;48.82;39.58;65.30;;
50333;Laerm;36239;48.132;-1.210;2023-02-28T06:32:49;46.53;40.98;69.37;;
50333;Laerm;36239;48.132;-1.210;2023-02-28T06:35:15;45.29;40.13;69.48;;
50333;Laerm;36239;48.132;-1.210;2023-02-28T06:37:41;49.50;41.14;76.50;;
50333;Laerm;36239;48.132;-1.210;2023-02-28T06:40:09;46.28;41.61;66.57;;
50333;Laerm;36239;48.132;-1.210;2023-02-28T06:42:35;46.13;40.98;63.10;;
50333;Laerm;36239;48.132;-1.210;2023-02-28T06:45:02;57.99;42.65;84.44;;
50333;Laerm;36239;48.132;-1.210;2023-02-28T06:47:35;56.85;42.47;83.09;;
50333;Laerm;36239;48.132;-1.210;2023-02-28T06:50:02;55.20;43.14;78.18;;
50333;Laerm;36239;48.132;-1.210;2023-02-28T06:52:28;49.44;44.23;66.94;;
50333;Laerm;36239;48.132;-1.210;2023-02-28T06:54:54;52.57;41.26;74.34;;
50333;Laerm;36239;48.132;-1.210;2023-02-28T06:57:27;44.86;41.61;57.60;;
50333;Laerm;36239;48.132;-1.210;2023-02-28T06:59:53;45.28;41.75;58.26;;
50333;Laerm;36239;48.132;-1.210;2023-02-28T07:02:19;47.06;41.75;59.39;;
50333;Laerm;36239;48.132;-1.210;2023-02-28T07:04:45;44.37;41.38;48.85;;
50333;Laerm;36239;48.132;-1.210;2023-02-28T07:07:11;46.10;42.53;56.41;;
50333;Laerm;36239;48.132;-1.210;2023-02-28T07:09:37;46.74;41.61;58.24;;
50333;Laerm;36239;48.132;-1.210;2023-02-28T07:12:03;50.86;40.98;73.98;;
50333;Laerm;36239;48.132;-1.210;2023-02-28T07:14:29;46.38;42.47;66.51;;
50333;Laerm;36239;48.132;-1.210;2023-02-28T07:16:55;51.35;41.26;68.42;;
50333;Laerm;36239;48.132;-1.210;2023-02-28T07:19:21;46.04;40.71;64.47;;
50333;Laerm;36239;48.132;-1.210;2023-02-28T07:21:47;47.95;42.03;64.60;;
50333;Laerm;36239;48.132;-1.210;2023-02-28T07:24:13;48.10;41.89;68.62;;
50333;Laerm;36239;48.132;-1.210;2023-02-28T07:26:41;51.73;46.94;63.39;;
50333;Laerm;36239;48.132;-1.210;2023-02-28T07:29:07;49.17;45.57;58.36;;
50333;Laerm;36239;48.132;-1.210;2023-02-28T07:31:33;48.76;44.83;60.73;;
50333;Laerm;36239;48.132;-1.210;2023-02-28T07:33:59;56.33;45.07;69.65;;
50333;Laerm;36239;48.132;-1.210;2023-02-28T07:36:25;53.74;42.82;74.50;;
50333;Laerm;36239;48.132;-1.210;2023-02-28T07:38:51;49.30;42.41;64.39;;
50333;Laerm;36239;48.132;-1.210;2023-02-28T07:41:18;51.74;41.68;67.83;;
50333;Laerm;36239;48.132;-1.210;2023-02-28T07:43:44;51.80;42.16;70.49;;
50333;Laerm;36239;48.132;-1.210;2023-02-28T07:46:12;53.58;42.09;82.22;;
50333;Laerm;36239;48.132;-1.210;2023-02-28T07:48:38;50.36;42.16;74.74;;
50333;Laerm;36239;48.132;-1.210;2023-02-28T07:51:04;46.38;42.41;67.12;;
50333;Laerm;36239;48.132;-1.210;2023-02-28T07:53:30;47.47;41.22;70.86;;
50333;Laerm;36239;48.132;-1.210;2023-02-28T07:55:56;50.44;40.33;79.41;;
50333;Laerm;36239;48.132;-1.210;2023-02-28T07:58:23;46.67;39.70;64.12;;
50333;Laerm;36239;48.132;-1.210;2023-02-28T08:00:50;50.99;41.06;75.78;;
50333;Laerm;36239;48.132;-1.210;2023-02-28T08:03:17;50.04;39.81;75.28;;
50333;Laerm;36239;48.132;-1.210;2023-02-28T08:05:43;54.08;39.58;84.43;;
50333;Laerm;36239;48.132;-1.210;2023-02-28T08:08:09;44.81;39.46;67.60;;
50333;Laerm;36239;48.132;-1.210;2023-02-28T08:10:35;56.39;38.05;85.48;;
50333;Laerm;36239;48.132;-1.210;2023-02-28T08:13:01;44.17;38.21;64.07;;
50333;Laerm;36239;48.132;-1.210;2023-02-28T08:15:27;44.32;39.46;66.12;;
50333;Laerm;36239;48.132;-1.210;2023-02-28T08:17:53;53.14;39.46;83.36;;
50333;Laerm;36239;48.132;-1.210;2023-02-28T08:20:22;57.59;38.52;83.36;;
50333;Laerm;36239;48.132;-1.210;2023-02-28T08:22:48;43.65;38.95;62.90;;
50333;Laerm;36239;48.132;-1.210;2023-02-28T08:25:15;48.75;40.13;73.76;;
50333;Laerm;36239;48.132;-1.210;2023-02-28T08:27:41;50.52;38.67;76.13;;
50333;Laerm;36239;48.132;-1.210;2023-02-28T08:30:11;52.59;38.67;75.20;;
50333;Laerm;36239;48.132;-1.210;2023-02-28T08:32:37;53.93;38.37;77.73;;
50333;Laerm;36239;48.132;-1.210;2023-02-28T08:35:04;47.83;39.08;72.99;;
50333;Laerm;36239;48.132;-1.210;2023-02-28T08:37:30;44.03;39.08;64.02;;
50333;Laerm;36239;48.132;-1.210;2023-02-28T08:39:56;54.53;38.05;81.90;;
50333;Laerm;36239;48.132;-1.210;2023-02-28T08:42:23;47.57;39.21;69.67;;
50333;Laerm;36239;48.132;-1.210;2023-02-28T08:44:49;58.36;39.08;87.57;;
50333;Laerm;36239;48.132;-1.210;2023-02-28T08:47:15;47.88;39.34;71.16;;
50333;Laerm;36239;48.132;-1.210;2023-02-28T08:49:41;45.56;38.21;65.40;;
50333;Laerm;36239;48.132;-1.210;2023-02-28T08:52:07;48.18;38.74;71.92;;
50333;Laerm;36239;48.132;-1.210;2023-02-28T08:54:33;52.65;38.81;78.06;;
50333;Laerm;36239;48.132;-1.210;2023-02-28T08:57:00;45.48;37.88;66.49;;
50333;Laerm;36239;48.132;-1.210;2023-02-28T08:59:26;60.41;38.37;87.20;;
50333;Laerm;36239;48.132;-1.210;2023-02-28T09:01:52;50.71;38.21;78.25;;
50333;Laerm;36239;48.132;-1.210;2023-02-28T09:04:17;50.84;38.21;70.48;;
50333;Laerm;36239;48.132;-1.210;2023-02-28T09:06:43;53.60;38.95;80.12;;
50333;Laerm;36239;48.132;-1.210;2023-02-28T09:09:10;52.36;38.81;78.71;;
50333;Laerm;36239;48.132;-1.210;2023-02-28T09:11:36;46.78;37.53;68.10;;
50333;Laerm;36239;48.132;-1.210;2023-02-28T09:14:02;46.99;38.05;67.65;;
50333;Laerm;36239;48.132;-1.210;2023-02-28T09:16:30;55.83;38.05;85.34;;
50333;Laerm;36239;48.132;-1.210;2023-02-28T09:18:56;51.38;37.52;72.14;;
50333;Laerm;36239;48.132;-1.210;2023-02-28T09:21:22;52.31;41.19;73.92;;
50333;Laerm;36239;48.132;-1.210;2023-02-28T09:23:49;52.34;42.30;68.29;;
50333;Laerm;36239;48.132;-1.210;2023-02-28T09:28:42;58.94;41.96;85.51;;
50333;Laerm;36239;48.132;-1.210;2023-02-28T09:31:12;57.68;41.38;80.68;;
50333;Laerm;36239;48.132;-1.210;2023-02-28T09:33:38;52.55;39.70;75.03;;
50333;Laerm;36239;48.132;-1.210;2023-02-28T09:36:04;59.66;38.67;86.18;;
50333;Laerm;36239;48.132;-1.210;2023-02-28T09:38:30;55.20;38.37;85.96;;
50333;Laerm;36239;48.132;-1.210;2023-02-28T09:41:01;51.54;37.52;78.06;;
50333;Laerm;36239;48.132;-1.210;2023-02-28T09:43:29;52.37;37.70;79.88;;
50333;Laerm;36239;48.132;-1.210;2023-02-28T09:48:44;59.84;40.53;83.39;;
50333;Laerm;36239;48.132;-1.210;2023-02-28T09:52:13;66.83;40.33;90.85;;
50333;Laerm;36239;48.132;-1.210;2023-02-28T09:54:09;52.00;37.88;76.60;;
50333;Laerm;36239;48.132;-1.210;2023-02-28T09:56:39;59.71;38.81;80.53;;
50333;Laerm;36239;48.132;-1.210;2023-02-28T09:59:13;56.25;38.05;80.38;;
50333;Laerm;36239;48.132;-1.210;2023-02-28T10:01:57;58.63;38.52;85.01;;
50333;Laerm;36239;48.132;-1.210;2023-02-28T10:07:19;58.13;37.88;86.18;;
50333;Laerm;36239;48.132;-1.210;2023-02-28T10:09:49;49.33;37.32;74.76;;
50333;Laerm;36239;48.132;-1.210;2023-02-28T10:12:17;58.00;39.23;81.98;;
50333;Laerm;36239;48.132;-1.210;2023-02-28T10:14:45;69.60;39.46;93.76;;
50333;Laerm;36239;48.132;-1.210;2023-02-28T10:17:15;61.70;40.23;85.47;;
50333;Laerm;36239;48.132;-1.210;2023-02-28T10:22:25;67.02;40.33;92.65;;
50333;Laerm;36239;48.132;-1.210;2023-02-28T10:24:54;59.55;38.81;86.18;;
50333;Laerm;36239;48.132;-1.210;2023-02-28T10:27:23;71.39;38.32;95.90;;
50333;Laerm;36239;48.132;-1.210;2023-02-28T10:29:54;69.78;40.36;99.77;;
50333;Laerm;36239;48.132;-1.210;2023-02-28T10:32:21;74.98;38.37;100.21;;
50333;Laerm;36239;48.132;-1.210;2023-02-28T10:37:23;72.29;37.88;95.15;;
50333;Laerm;36239;48.132;-1.210;2023-02-28T10:39:49;64.52;38.21;93.98;;
50333;Laerm;36239;48.132;-1.210;2023-02-28T10:42:26;63.02;38.52;87.81;;
50333;Laerm;36239;48.132;-1.210;2023-02-28T10:45:06;68.80;38.81;94.26;;
50333;Laerm;36239;48.132;-1.210;2023-02-28T10:47:33;64.16;39.58;91.40;;
50333;Laerm;36239;48.132;-1.210;2023-02-28T10:50:00;63.42;39.46;89.22;;
50333;Laerm;36239;48.132;-1.210;2023-02-28T10:52:35;65.19;39.08;89.19;;
50333;Laerm;36239;48.132;-1.210;2023-02-28T10:58:00;59.52;38.67;87.82;;
50333;Laerm;36239;48.132;-1.210;2023-02-28T11:00:26;71.85;38.81;98.17;;
50333;Laerm;36239;48.132;-1.210;2023-02-28T11:02:57;73.53;39.46;102.86;;
50333;Laerm;36239;48.132;-1.210;2023-02-28T11:07:53;67.90;38.95;92.01;;
50333;Laerm;36239;48.132;-1.210;2023-02-28T11:10:20;65.91;40.13;87.93;;
50333;Laerm;36239;48.132;-1.210;2023-02-28T11:12:47;63.85;39.21;91.71;;
50333;Laerm;36239;48.132;-1.210;2023-02-28T11:17:58;80.42;39.92;107.80;;
50333;Laerm;36239;48.132;-1.210;2023-02-28T11:20:26;65.61;39.70;93.85;;
50333;Laerm;36239;48.132;-1.210;2023-02-28T11:22:55;66.23;38.81;93.76;;
50333;Laerm;36239;48.132;-1.210;2023-02-28T11:25:23;66.73;39.08;90.79;;
50333;Laerm;36239;48.132;-1.210;2023-02-28T11:28:00;60.99;39.34;88.24;;
50333;Laerm;36239;48.132;-1.210;2023-02-28T11:30:37;65.59;38.67;90.47;;
50333;Laerm;36239;48.132;-1.210;2023-02-28T11:35:49;66.01;39.58;88.88;;
50333;Laerm;36239;48.132;-1.210;2023-02-28T11:38:15;54.50;40.03;81.60;;
50333;Laerm;36239;48.132;-1.210;2023-02-28T11:46:30;62.55;41.22;87.80;;
50333;Laerm;36239;48.132;-1.210;2023-02-28T11:48:41;77.00;40.43;105.01;;
50333;Laerm;36239;48.132;-1.210;2023-02-28T11:51:13;61.12;40.89;91.81;;
50333;Laerm;36239;48.132;-1.210;2023-02-28T11:53:47;72.37;42.22;95.57;;
50333;Laerm;36239;48.132;-1.210;2023-02-28T11:58:44;70.60;40.62;91.77;;
50333;Laerm;36239;48.132;-1.210;2023-02-28T12:01:37;71.69;40.33;97.66;;
50333;Laerm;36239;48.132;-1.210;2023-02-28T12:11:51;72.25;41.38;95.71;;
50333;Laerm;36239;48.132;-1.210;2023-02-28T12:19:26;68.81;41.06;96.88;;
50333;Laerm;36239;48.132;-1.210;2023-02-28T12:27:09;74.92;42.88;98.96;;
50333;Laerm;36239;48.132;-1.210;2023-02-28T12:29:41;76.08;43.63;107.03;;
50333;Laerm;36239;48.132;-1.210;2023-02-28T12:32:20;69.39;40.89;91.36;;
50333;Laerm;36239;48.132;-1.210;2023-02-28T12:34:48;71.33;39.92;95.56;;
50333;Laerm;36239;48.132;-1.210;2023-02-28T12:37:17;70.83;39.21;95.35;;
50333;Laerm;36239;48.132;-1.210;2023-02-28T12:39:47;74.61;40.43;103.22;;
50333;Laerm;36239;48.132;-1.210;2023-02-28T12:42:19;69.24;40.13;98.08;;
50333;Laerm;36239;48.132;-1.210;2023-02-28T12:44:51;66.36;39.58;90.93;;
50333;Laerm;36239;48.132;-1.210;2023-02-28T12:47:18;68.23;40.13;93.31;;
50333;Laerm;36239;48.132;-1.210;2023-02-28T12:52:23;73.33;41.06;100.59;;
50333;Laerm;36239;48.132;-1.210;2023-02-28T12:54:52;59.13;40.03;83.51;;
50333;Laerm;36239;48.132;-1.210;2023-02-28T13:00:22;76.10;39.34;105.33;;
50333;Laerm;36239;48.132;-1.210;2023-02-28T13:03:00;62.55;40.43;88.72;;
50333;Laerm;36239;48.132;-1.210;2023-02-28T13:10:48;62.52;39.70;89.90;;
50333;Laerm;36239;48.132;-1.210;2023-02-28T13:13:22;69.89;39.08;92.88;;
50333;Laerm;36239;48.132;-1.210;2023-02-28T13:16:08;65.20;38.52;92.33;;
50333;Laerm;36239;48.132;-1.210;2023-02-28T13:18:38;78.92;39.21;108.05;;
50333;Laerm;36239;48.132;-1.210;2023-02-28T13:21:08;69.00;39.46;96.63;;
50333;Laerm;36239;48.132;-1.210;2023-02-28T13:26:06;75.99;41.14;101.07;;
50333;Laerm;36239;48.132;-1.210;2023-02-28T13:31:16;78.82;41.14;102.89;;
50333;Laerm;36239;48.132;-1.210;2023-02-28T13:46:31;73.12;41.14;98.99;;
50333;Laerm;36239;48.132;-1.210;2023-02-28T13:51:43;63.71;39.92;91.52;;
50333;Laerm;36239;48.132;-1.210;2023-02-28T13:56:48;58.84;39.92;87.26;;
50333;Laerm;36239;48.132;-1.210;2023-02-28T14:02:26;59.42;39.34;84.28;;
50333;Laerm;36239;48.132;-1.210;2023-02-28T14:05:12;61.59;41.68;85.10;;
50333;Laerm;36239;48.132;-1.210;2023-02-28T14:07:49;56.27;40.13;85.78;;
50333;Laerm;36239;48.132;-1.210;2023-02-28T14:10:23;68.45;39.81;91.80;;
50333;Laerm;36239;48.132;-1.210;2023-02-28T14:18:03;53.28;41.61;77.03;;
50333;Laerm;36239;48.132;-1.210;2023-02-28T14:20:29;64.43;42.06;88.13;;
50333;Laerm;36239;48.132;-1.210;2023-02-28T14:31:23;70.36;41.53;93.38;;
50333;Laerm;36239;48.132;-1.210;2023-02-28T14:34:05;72.93;42.16;96.75;;
50333;Laerm;36239;48.132;-1.210;2023-02-28T14:36:40;66.92;40.53;95.36;;
50333;Laerm;36239;48.132;-1.210;2023-02-28T14:41:37;72.32;41.68;96.57;;
50333;Laerm;36239;48.132;-1.210;2023-02-28T14:44:20;71.30;42.59;95.92;;
50333;Laerm;36239;48.132;-1.210;2023-02-28T14:46:47;59.31;41.06;84.61;;
50333;Laerm;36239;48.132;-1.210;2023-02-28T14:49:30;65.54;42.03;86.37;;
50333;Laerm;36239;48.132;-1.210;2023-02-28T14:54:32;63.32;41.33;86.07;;
50333;Laerm;36239;48.132;-1.210;2023-02-28T14:56:58;71.43;42.29;93.34;;
50333;Laerm;36239;48.132;-1.210;2023-02-28T14:59:25;73.23;41.30;95.02;;
50333;Laerm;36239;48.132;-1.210;2023-02-28T15:01:52;71.26;40.80;91.87;;
50333;Laerm;36239;48.132;-1.210;2023-02-28T15:04:22;65.28;41.53;90.21;;
50333;Laerm;36239;48.132;-1.210;2023-02-28T15:07:06;63.60;40.71;84.73;;
50333;Laerm;36239;48.132;-1.210;2023-02-28T15:09:32;61.72;39.92;85.97;;
50333;Laerm;36239;48.132;-1.210;2023-02-28T15:11:58;68.43;40.23;91.03;;
50333;Laerm;36239;48.132;-1.210;2023-02-28T15:14:24;56.51;40.03;80.68;;
50333;Laerm;36239;48.132;-1.210;2023-02-28T15:17:00;76.53;40.43;97.77;;
50333;Laerm;36239;48.132;-1.210;2023-02-28T15:19:29;61.23;40.80;85.49;;
50333;Laerm;36239;48.132;-1.210;2023-02-28T15:21:59;68.00;41.06;91.14;;
50333;Laerm;36239;48.132;-1.210;2023-02-28T15:26:58;69.70;41.03;95.34;;
50333;Laerm;36239;48.132;-1.210;2023-02-28T15:29:26;65.53;40.33;88.49;;
50333;Laerm;36239;48.132;-1.210;2023-02-28T15:31:59;59.31;41.06;83.92;;
50333;Laerm;36239;48.132;-1.210;2023-02-28T15:34:36;58.18;39.70;81.35;;
50333;Laerm;36239;48.132;-1.210;2023-02-28T15:37:46;56.05;39.58;82.93;;
50333;Laerm;36239;48.132;-1.210;2023-02-28T15:39:53;55.11;40.13;80.55;;
50333;Laerm;36239;48.132;-1.210;2023-02-28T15:42:21;62.71;40.62;91.08;;
50333;Laerm;36239;48.132;-1.210;2023-02-28T15:44:48;58.24;40.62;84.49;;
50333;Laerm;36239;48.132;-1.210;2023-02-28T15:49:44;64.66;41.22;88.10;;
50333;Laerm;36239;48.132;-1.210;2023-02-28T15:52:19;60.51;40.71;91.22;;
50333;Laerm;36239;48.132;-1.210;2023-02-28T15:54:47;62.77;40.88;87.16;;
50333;Laerm;36239;48.132;-1.210;2023-02-28T15:57:15;69.72;41.96;90.94;;
50333;Laerm;36239;48.132;-1.210;2023-02-28T15:59:50;61.86;41.22;89.31;;
50333;Laerm;36239;48.132;-1.210;2023-02-28T16:02:19;53.87;40.43;75.78;;